createdAt,value
2022-10-13T04:02:15.126Z,101336.00
2022-10-13T04:04:43.491Z,101339.00
2022-10-13T04:07:11.804Z,101337.00
2022-10-13T04:09:40.166Z,101339.00
2022-10-13T04:12:08.579Z,101355.00
2022-10-13T04:14:37.039Z,101336.00
2022-10-13T04:17:05.352Z,101330.00
2022-10-13T04:19:35.016Z,101331.00
2022-10-13T04:22:03.417Z,101337.00
2022-10-13T04:24:31.783Z,101325.00
2022-10-13T04:27:00.136Z,101331.00
2022-10-13T04:29:28.471Z,101327.00
2022-10-13T04:31:56.825Z,101319.00
2022-10-13T04:34:25.078Z,101324.00
2022-10-13T04:36:57.291Z,101326.00
2022-10-13T04:39:25.595Z,101320.00
2022-10-13T04:41:53.952Z,101323.00
2022-10-13T04:44:22.548Z,101316.00
2022-10-13T04:46:50.987Z,101322.00
2022-10-13T04:49:19.328Z,101324.00
2022-10-13T04:51:47.717Z,101324.00
2022-10-13T04:54:17.660Z,101314.00
2022-10-13T04:56:46.505Z,101317.00
2022-10-13T04:59:14.824Z,101310.00
2022-10-13T05:01:43.276Z,101312.00
2022-10-13T05:04:11.856Z,101308.00
2022-10-13T05:07:05.223Z,101310.00
2022-10-13T05:09:32.089Z,101309.00
2022-10-13T05:12:00.564Z,101306.00
2022-10-13T05:14:28.885Z,101306.00
2022-10-13T05:16:57.173Z,101310.00
2022-10-13T05:19:25.604Z,101303.00
2022-10-13T05:21:53.941Z,101309.00
2022-10-13T05:24:31.005Z,101307.00
2022-10-13T05:27:00.715Z,101303.00
2022-10-13T05:29:29.255Z,101288.00
2022-10-13T05:31:57.630Z,101304.00
2022-10-13T05:34:25.988Z,101295.00
2022-10-13T05:36:54.320Z,101295.00
2022-10-13T05:39:22.671Z,101301.00
2022-10-13T05:41:51.197Z,101296.00
2022-10-13T05:44:21.784Z,101296.00
2022-10-13T05:46:50.147Z,101292.00
2022-10-13T05:49:18.470Z,101294.00
2022-10-13T05:51:49.890Z,101299.00
2022-10-13T05:54:22.944Z,101283.00
2022-10-13T05:56:54.959Z,101283.00
2022-10-13T05:59:27.325Z,101286.00
2022-10-13T06:01:56.488Z,101291.00
2022-10-13T06:04:29.884Z,101289.00
2022-10-13T06:06:59.216Z,101291.00
2022-10-13T06:09:34.497Z,101293.00
2022-10-13T06:12:02.914Z,101290.00
2022-10-13T06:14:32.619Z,101297.00
2022-10-13T06:17:00.958Z,101292.00
2022-10-13T06:19:29.314Z,101288.00
2022-10-13T06:22:01.268Z,101288.00
2022-10-13T06:24:31.820Z,101291.00
2022-10-13T06:27:00.136Z,101287.00
2022-10-13T06:29:28.580Z,101296.00
2022-10-13T06:31:58.356Z,101287.00
2022-10-13T06:34:26.676Z,101288.00
2022-10-13T06:36:55.687Z,101288.00
2022-10-13T06:39:24.000Z,101294.00
2022-10-13T06:41:52.656Z,101298.00
2022-10-13T06:44:21.008Z,101296.00
2022-10-13T06:46:49.320Z,101304.00
2022-10-13T06:49:19.382Z,101291.00
2022-10-13T06:51:47.752Z,101295.00
2022-10-13T06:54:16.157Z,101298.00
2022-10-13T06:56:44.658Z,101299.00
2022-10-13T06:59:13.036Z,101296.00
2022-10-13T07:01:41.911Z,101304.00
2022-10-13T07:04:10.577Z,101299.00
2022-10-13T07:06:40.215Z,101300.00
2022-10-13T07:09:09.601Z,101302.00
2022-10-13T07:11:38.864Z,101285.00
2022-10-13T07:14:07.218Z,101283.00
2022-10-13T07:16:36.137Z,101283.00
2022-10-13T07:19:04.685Z,101281.00
2022-10-13T07:21:33.234Z,101280.00
2022-10-13T07:24:04.037Z,101281.00
2022-10-13T07:26:33.897Z,101276.00
2022-10-13T07:29:02.479Z,101282.00
2022-10-13T07:31:31.196Z,101276.00
2022-10-13T07:34:01.512Z,101285.00
2022-10-13T07:36:29.912Z,101277.00
2022-10-13T07:38:58.442Z,101273.00
2022-10-13T07:41:28.067Z,101276.00
2022-10-13T07:43:56.969Z,101271.00
2022-10-13T07:46:26.322Z,101273.00
2022-10-13T07:48:55.043Z,101271.00
2022-10-13T07:51:24.125Z,101272.00
2022-10-13T07:53:52.481Z,101267.00
2022-10-13T07:56:20.847Z,101267.00
2022-10-13T07:58:50.576Z,101271.00
2022-10-13T08:01:19.231Z,101266.00
2022-10-13T08:03:50.244Z,101269.00
2022-10-13T08:06:19.532Z,101264.00
2022-10-13T08:08:47.835Z,101256.00
2022-10-13T08:11:17.945Z,101250.00
2022-10-13T08:13:50.747Z,101245.00
2022-10-13T08:16:19.688Z,101247.00
2022-10-13T08:18:48.514Z,101251.00
2022-10-13T08:24:08.197Z,101254.00
2022-10-13T08:26:36.633Z,101254.00
2022-10-13T08:29:23.592Z,101254.00
2022-10-13T08:31:53.426Z,101254.00
2022-10-13T08:34:22.582Z,101251.00
2022-10-13T08:36:53.669Z,101250.00
2022-10-13T08:39:22.700Z,101243.00
2022-10-13T08:41:51.412Z,101241.00
2022-10-13T08:45:10.812Z,101235.00
2022-10-13T08:47:22.236Z,101241.00
2022-10-13T08:49:51.024Z,101243.00
2022-10-13T08:52:21.694Z,101244.00
2022-10-13T08:54:50.844Z,101242.00
2022-10-13T08:57:19.989Z,101242.00
2022-10-13T08:59:50.913Z,101244.00
2022-10-13T09:02:30.273Z,101242.00
2022-10-13T09:05:02.037Z,101242.00
2022-10-13T09:07:33.667Z,101244.00
2022-10-13T09:10:02.102Z,101247.00
2022-10-13T09:12:31.438Z,101246.00
2022-10-13T09:15:05.180Z,101240.00
2022-10-13T09:17:35.496Z,101232.00
2022-10-13T09:20:08.230Z,101234.00
2022-10-13T09:22:38.153Z,101227.00
2022-10-13T09:25:16.766Z,101229.00
2022-10-13T09:27:48.214Z,101225.00
2022-10-13T09:30:31.615Z,101223.00
2022-10-13T11:08:50.905Z,101181.00
2022-10-13T11:11:40.094Z,101174.00
2022-10-13T11:14:29.245Z,101169.00
2022-10-13T11:17:16.160Z,101170.00
2022-10-13T11:19:44.639Z,101173.00
2022-10-13T11:22:26.528Z,101166.00
2022-10-13T11:25:05.460Z,101163.00
2022-10-13T11:27:44.789Z,101165.00
2022-10-13T11:30:43.069Z,101164.00
2022-10-13T11:33:33.773Z,101164.00
2022-10-13T11:36:30.062Z,101158.00
2022-10-13T11:39:06.402Z,101161.00
2022-10-13T11:41:42.542Z,101150.00
2022-10-13T11:44:20.867Z,101145.00
2022-10-13T11:47:03.353Z,101158.00
2022-10-13T11:49:53.615Z,101152.00
2022-10-13T11:52:41.660Z,101162.00
2022-10-13T11:55:15.946Z,101157.00
2022-10-13T11:57:45.677Z,101152.00
2022-10-13T12:00:17.406Z,101138.00
2022-10-13T12:02:51.320Z,101138.00
2022-10-13T12:05:24.652Z,101140.00
2022-10-13T12:07:55.596Z,101126.00
2022-10-13T12:10:31.417Z,101117.00
2022-10-13T12:13:01.874Z,101115.00
2022-10-13T12:15:35.187Z,101115.00
2022-10-13T12:18:04.415Z,101121.00
2022-10-13T12:20:34.161Z,101123.00
2022-10-13T12:23:02.526Z,101122.00
2022-10-13T12:25:33.595Z,101111.00
2022-10-13T12:28:04.136Z,101108.00
2022-10-13T12:30:36.196Z,101105.00
2022-10-13T12:33:05.838Z,101114.00
2022-10-13T12:35:35.619Z,101119.00
2022-10-13T12:38:07.796Z,101118.00
2022-10-13T12:40:36.730Z,101119.00
2022-10-13T12:43:06.871Z,101121.00
2022-10-13T12:45:36.460Z,101122.00
2022-10-13T12:48:04.881Z,101120.00
2022-10-13T12:50:38.573Z,101123.00
2022-10-13T12:53:17.801Z,101118.00
2022-10-13T12:55:52.163Z,101109.00
2022-10-13T12:58:24.920Z,101117.00
2022-10-13T13:01:10.829Z,101101.00
2022-10-13T13:03:40.911Z,101108.00
2022-10-13T13:06:23.157Z,101104.00
2022-10-13T13:09:19.099Z,101105.00
2022-10-13T13:11:47.639Z,101114.00
2022-10-13T13:14:36.746Z,101122.00
2022-10-13T13:17:12.432Z,101106.00
2022-10-13T13:19:42.361Z,101109.00
2022-10-13T13:22:11.362Z,101114.00
2022-10-13T13:24:40.647Z,101112.00
2022-10-13T13:27:17.904Z,101126.00
2022-10-13T13:29:48.110Z,101107.00
2022-10-13T13:32:20.203Z,101104.00
2022-10-13T13:34:49.069Z,101099.00
2022-10-13T13:37:30.660Z,101100.00
2022-10-13T13:39:59.364Z,101105.00
2022-10-13T13:42:29.186Z,101091.00
2022-10-13T13:44:59.050Z,101091.00
2022-10-13T13:47:29.394Z,101093.00
2022-10-13T13:49:58.740Z,101091.00
2022-10-13T13:52:27.256Z,101085.00
2022-10-13T13:54:56.462Z,101089.00
2022-10-13T13:57:24.843Z,101081.00
2022-10-13T13:59:53.235Z,101078.00
2022-10-13T14:02:23.291Z,101078.00
2022-10-13T14:04:52.052Z,101079.00
2022-10-13T14:07:21.414Z,101078.00
2022-10-13T14:09:50.123Z,101084.00
2022-10-13T14:12:18.781Z,101087.00
2022-10-13T14:14:47.440Z,101076.00
2022-10-13T14:17:15.764Z,101079.00
2022-10-13T14:19:45.524Z,101070.00
2022-10-13T14:22:13.910Z,101071.00
2022-10-13T14:24:42.256Z,101073.00
2022-10-13T14:27:10.697Z,101064.00
2022-10-13T14:29:39.037Z,101065.00
2022-10-13T14:32:07.520Z,101069.00
2022-10-13T14:34:35.882Z,101068.00
2022-10-13T14:37:05.622Z,101063.00
2022-10-13T14:39:34.027Z,101064.00
2022-10-13T14:42:02.329Z,101067.00
2022-10-13T14:44:30.723Z,101062.00
2022-10-13T14:46:59.065Z,101067.00
2022-10-13T14:49:27.420Z,101061.00
2022-10-13T14:51:55.827Z,101060.00
2022-10-13T14:54:25.727Z,101060.00
2022-10-13T14:56:54.053Z,101061.00
2022-10-13T14:59:22.436Z,101063.00
2022-10-13T15:01:51.197Z,101055.00
2022-10-13T15:04:19.472Z,101062.00
2022-10-13T15:06:47.768Z,101056.00
2022-10-13T15:09:16.051Z,101056.00
2022-10-13T15:11:46.535Z,101054.00
2022-10-13T15:14:14.858Z,101052.00
2022-10-13T15:16:43.193Z,101053.00
2022-10-13T15:19:11.500Z,101046.00
2022-10-13T15:21:40.586Z,101039.00
2022-10-13T15:24:10.563Z,101039.00
2022-10-13T15:26:39.407Z,101045.00
2022-10-13T15:29:09.033Z,101044.00
2022-10-13T15:31:37.293Z,101044.00
2022-10-13T15:34:06.722Z,101044.00
2022-10-13T15:36:35.181Z,101043.00
2022-10-13T15:39:03.583Z,101048.00
2022-10-13T15:41:31.928Z,101043.00
2022-10-13T15:44:00.255Z,101046.00
2022-10-13T15:46:31.444Z,101037.00
2022-10-13T15:48:59.999Z,101043.00
2022-10-13T15:51:28.335Z,101041.00
2022-10-13T15:53:56.625Z,101030.00
2022-10-13T15:56:24.966Z,101037.00
2022-10-13T15:58:53.716Z,101032.00
2022-10-13T16:01:22.098Z,101037.00
2022-10-13T16:03:55.452Z,101025.00
2022-10-13T16:06:24.749Z,101037.00
2022-10-13T16:08:53.629Z,101027.00
2022-10-13T16:11:24.148Z,101035.00
2022-10-13T16:13:53.647Z,101032.00
2022-10-13T16:16:22.976Z,101038.00
2022-10-13T16:18:52.894Z,101035.00
2022-10-13T16:21:23.687Z,101029.00
2022-10-13T16:23:52.440Z,101027.00
2022-10-13T16:26:21.635Z,101026.00
2022-10-13T16:28:50.206Z,101026.00
2022-10-13T16:31:18.903Z,101033.00
2022-10-13T16:33:47.340Z,101031.00
2022-10-13T16:36:19.328Z,101026.00
2022-10-13T16:38:48.578Z,101031.00
2022-10-13T16:41:19.133Z,101025.00
2022-10-13T16:43:48.259Z,101026.00
2022-10-13T16:46:18.763Z,101027.00
2022-10-13T16:48:47.986Z,101028.00
2022-10-13T16:51:19.926Z,101024.00
2022-10-13T16:53:52.072Z,101020.00
2022-10-13T16:56:22.218Z,101019.00
2022-10-13T16:58:50.832Z,101024.00
2022-10-13T17:01:19.355Z,101020.00
2022-10-13T17:03:48.392Z,101021.00
2022-10-13T17:06:19.696Z,101019.00
2022-10-13T17:08:48.039Z,101021.00
2022-10-13T17:11:18.795Z,101018.00
2022-10-13T17:13:47.429Z,101023.00
2022-10-13T17:16:16.431Z,101026.00
2022-10-13T17:18:44.857Z,101017.00
2022-10-13T17:21:14.840Z,101024.00
2022-10-13T17:23:48.640Z,101022.00
2022-10-13T17:26:18.993Z,101032.00
2022-10-13T17:28:47.926Z,101023.00
2022-10-13T17:31:17.873Z,101026.00
2022-10-13T17:33:47.134Z,101017.00
2022-10-13T17:36:17.503Z,101016.00
2022-10-13T17:38:47.931Z,101011.00
2022-10-13T17:41:16.479Z,101011.00
2022-10-13T17:43:45.243Z,101026.00
2022-10-13T17:49:04.628Z,101015.00
2022-10-13T17:51:33.015Z,101018.00
2022-10-13T17:54:02.798Z,101020.00
2022-10-13T17:56:31.596Z,101022.00
2022-10-13T17:59:01.764Z,101018.00
2022-10-13T18:01:32.445Z,101009.00
2022-10-13T18:04:02.292Z,101009.00
2022-10-13T18:06:37.905Z,101006.00
2022-10-13T18:09:11.206Z,101008.00
2022-10-13T18:11:40.311Z,101008.00
2022-10-13T18:14:09.630Z,101005.00
2022-10-13T18:16:38.005Z,101006.00
2022-10-13T18:19:07.717Z,101006.00
2022-10-13T18:21:36.020Z,101004.00
2022-10-13T18:24:04.475Z,101008.00
2022-10-13T18:26:35.879Z,101003.00
2022-10-13T18:29:05.711Z,100995.00
2022-10-13T18:31:35.939Z,100998.00
2022-10-13T18:34:06.535Z,100992.00
2022-10-13T18:36:36.454Z,100995.00
2022-10-13T18:39:07.544Z,100998.00
2022-10-13T18:41:38.326Z,100992.00
2022-10-13T18:44:07.550Z,100997.00
2022-10-13T18:46:37.000Z,100992.00
2022-10-13T18:49:05.758Z,100994.00
2022-10-13T18:51:36.541Z,100988.00
2022-10-13T18:54:06.461Z,100987.00
2022-10-13T18:56:37.659Z,100982.00
2022-10-13T18:59:07.502Z,100985.00
2022-10-13T19:01:37.610Z,100985.00
2022-10-13T19:04:06.723Z,100988.00
2022-10-13T19:06:35.537Z,100986.00
2022-10-13T19:09:06.806Z,100985.00
2022-10-13T19:11:37.623Z,100986.00
2022-10-13T19:14:07.521Z,100981.00
2022-10-13T19:16:38.362Z,100982.00
2022-10-13T19:19:07.901Z,100989.00
2022-10-13T19:21:36.641Z,100985.00
2022-10-13T19:24:05.371Z,100985.00
2022-10-13T19:26:35.432Z,100984.00
2022-10-13T19:29:08.024Z,100974.00
2022-10-13T19:31:37.841Z,100982.00
2022-10-13T19:34:06.329Z,100973.00
2022-10-13T19:36:38.840Z,100978.00
2022-10-13T19:39:11.655Z,100976.00
2022-10-13T19:41:40.590Z,100981.00
2022-10-13T19:44:10.192Z,100974.00
2022-10-13T19:46:38.543Z,100967.00
2022-10-13T19:49:07.652Z,100967.00
2022-10-13T19:51:36.079Z,100975.00
2022-10-13T19:54:04.482Z,100963.00
2022-10-13T19:56:33.998Z,100966.00
2022-10-13T19:59:04.252Z,100958.00
2022-10-13T20:01:39.788Z,100963.00
2022-10-13T20:04:08.601Z,100964.00
2022-10-13T20:06:37.912Z,100971.00
2022-10-13T20:09:06.827Z,100983.00
2022-10-13T20:11:35.175Z,100971.00
2022-10-13T20:14:03.621Z,100972.00
2022-10-13T20:16:33.464Z,100979.00
2022-10-13T20:19:02.474Z,100973.00
2022-10-13T20:21:30.933Z,100975.00
2022-10-13T20:23:59.754Z,100973.00
2022-10-13T20:26:28.110Z,100971.00
2022-10-13T20:28:58.137Z,100974.00
2022-10-13T20:31:27.748Z,100969.00
2022-10-13T20:33:58.573Z,100974.00
2022-10-13T20:36:31.003Z,100965.00
2022-10-13T20:39:01.677Z,100964.00
2022-10-13T20:41:32.039Z,100965.00
2022-10-13T20:44:01.885Z,100954.00
2022-10-13T20:46:30.219Z,100965.00
2022-10-13T20:49:15.293Z,100954.00
2022-10-13T20:51:44.440Z,100964.00
2022-10-13T20:54:14.310Z,100964.00
2022-10-13T20:56:43.532Z,100962.00
2022-10-13T20:59:15.428Z,100967.00
